Time;durP1;ratioP1;P1;durP2;ratioP2;P2;SDS_P1;SDS_P2;PMS_P1;PMS_P2;Temp;Humidity;BMP_temperature;BMP_pressure;BME280_temperature;BME280_humidity;BME280_pressure;Samples;Min_cycle;Max_cycle;Signal;HPM_P1;HPM_P2
2022/12/27 00:01:37;;;;;;;72.93;43.27;;;;;;;6.26;55.64;101907.09;5038399;28;20390;-78
2022/12/27 00:04:03;;;;;;;71.50;42.67;;;;;;;6.27;56.03;101897.41;5038947;28;20477;-77
2022/12/27 00:06:29;;;;;;;63.47;40.05;;;;;;;6.37;55.95;101887.03;5037599;28;20934;-77
2022/12/27 00:08:56;;;;;;;65.28;39.65;;;;;;;6.46;55.81;101881.06;5036441;28;20481;-78
2022/12/27 00:11:24;;;;;;;62.22;39.28;;;;;;;6.49;55.74;101876.41;5039171;28;20900;-78
2022/12/27 00:13:50;;;;;;;66.40;38.50;;;;;;;6.53;55.26;101877.03;5039854;28;20462;-78
2022/12/27 00:16:18;;;;;;;59.58;37.45;;;;;;;6.51;55.35;101873.69;5036628;28;20398;-78
2022/12/27 00:18:47;;;;;;;56.93;36.33;;;;;;;6.49;55.44;101876.41;5038722;28;20398;-78
2022/12/27 00:21:15;;;;;;;60.72;38.10;;;;;;;6.41;55.63;101875.31;5039456;28;20405;-78
2022/12/27 00:23:43;;;;;;;61.47;39.53;;;;;;;6.35;55.92;101873.97;5034224;28;20422;-78
2022/12/27 00:26:14;;;;;;;61.08;39.15;;;;;;;6.34;55.96;101882.84;5040592;28;20395;-77
2022/12/27 00:28:40;;;;;;;57.70;37.53;;;;;;;6.42;55.98;101875.19;5039749;28;20464;-77
2022/12/27 00:31:06;;;;;;;61.90;39.23;;;;;;;6.30;55.88;101891.91;5041040;28;20474;-77
2022/12/27 00:33:33;;;;;;;56.13;36.90;;;;;;;6.15;56.51;101880.72;5050630;28;20394;-77
2022/12/27 00:36:01;;;;;;;58.43;38.33;;;;;;;6.28;56.44;101883.28;5034620;28;20394;-77
2022/12/27 00:38:26;;;;;;;63.55;39.97;;;;;;;6.44;56.00;101883.00;5036707;28;20405;-77
2022/12/27 00:40:52;;;;;;;60.97;37.67;;;;;;;6.47;56.09;101888.88;5039612;28;20407;-77
2022/12/27 00:43:17;;;;;;;61.35;39.70;;;;;;;6.44;55.88;101891.72;5051991;28;20381;-77
2022/12/27 00:45:43;;;;;;;59.87;40.60;;;;;;;6.46;55.72;101895.09;5032599;28;20407;-77
2022/12/27 00:48:09;;;;;;;63.08;42.83;;;;;;;6.08;56.21;101904.00;5033551;28;20817;-77
2022/12/27 00:50:35;;;;;;;65.13;39.75;;;;;;;6.03;57.06;101914.06;5036409;28;20391;-77
2022/12/27 00:53:00;;;;;;;57.58;38.67;;;;;;;6.02;56.86;101901.00;5031625;28;20773;-77
2022/12/27 00:55:26;;;;;;;56.97;36.87;;;;;;;6.03;57.09;101913.19;5034127;28;20450;-76
2022/12/27 00:57:51;;;;;;;54.33;35.30;;;;;;;6.03;57.12;101898.25;5036088;28;20390;-77
2022/12/27 01:00:17;;;;;;;47.03;31.02;;;;;;;6.17;57.02;101899.03;5035016;28;22530;-77
2022/12/27 01:02:42;;;;;;;48.80;32.70;;;;;;;6.29;56.43;101895.50;5035037;28;20394;-77
2022/12/27 01:05:08;;;;;;;51.37;33.23;;;;;;;6.24;56.78;101895.84;5049701;28;20405;-77
2022/12/27 01:07:33;;;;;;;46.85;31.48;;;;;;;6.25;56.62;101888.78;5034228;28;20408;-77
2022/12/27 01:09:59;;;;;;;33.37;22.53;;;;;;;6.12;57.06;101900.22;5031507;28;20402;-77
2022/12/27 01:12:24;;;;;;;32.30;22.30;;;;;;;6.22;57.07;101900.38;5036893;28;20448;-77
2022/12/27 01:14:50;;;;;;;33.03;23.23;;;;;;;6.27;56.90;101884.25;5033784;28;20451;-78
2022/12/27 01:17:15;;;;;;;36.38;23.80;;;;;;;6.29;56.95;101885.81;5035819;28;20386;-77
2022/12/27 01:19:41;;;;;;;41.33;27.27;;;;;;;6.32;56.93;101880.31;5032343;28;20394;-77
2022/12/27 01:22:06;;;;;;;42.00;25.90;;;;;;;6.29;56.66;101879.72;5032166;28;20390;-77
2022/12/27 01:24:33;;;;;;;37.53;23.73;;;;;;;6.31;57.03;101883.91;5046055;28;20473;-77
2022/12/27 01:26:59;;;;;;;37.85;24.13;;;;;;;6.32;56.67;101882.94;5034643;28;20401;-77
2022/12/27 01:29:24;;;;;;;38.53;25.13;;;;;;;6.29;56.61;101883.16;5032905;28;20393;-77
2022/12/27 01:31:50;;;;;;;39.30;24.57;;;;;;;6.41;56.61;101883.22;5036832;28;21131;-77
2022/12/27 01:34:16;;;;;;;39.65;25.10;;;;;;;6.57;56.55;101883.78;5032595;28;20406;-77
2022/12/27 01:36:42;;;;;;;35.55;23.75;;;;;;;6.60;56.00;101874.78;5050567;28;20402;-77
2022/12/27 01:39:09;;;;;;;35.95;22.63;;;;;;;6.57;56.29;101875.00;5031295;28;20416;-77
2022/12/27 01:44:42;;;;;;;33.97;22.02;;;;;;;6.57;56.54;101867.97;5032139;28;20469;-77
2022/12/27 01:47:28;;;;;;;33.75;21.92;;;;;;;6.63;55.79;101870.13;5040523;28;20526;-78
2022/12/27 01:50:00;;;;;;;35.58;22.40;;;;;;;6.72;55.82;101862.47;5034773;28;20764;-78
2022/12/27 01:52:31;;;;;;;33.80;22.27;;;;;;;6.74;56.00;101865.84;5036055;28;20885;-77
2022/12/27 01:55:01;;;;;;;34.13;23.48;;;;;;;6.81;55.71;101859.97;5035516;28;20481;-78
2022/12/27 01:57:28;;;;;;;36.13;23.37;;;;;;;6.78;55.59;101862.00;5035780;28;20397;-76
2022/12/27 01:59:54;;;;;;;37.25;25.20;;;;;;;6.80;55.98;101852.19;5052451;28;20877;-76
2022/12/27 02:02:21;;;;;;;42.72;27.63;;;;;;;6.83;55.95;101850.16;5037739;28;20423;-77
2022/12/27 02:04:47;;;;;;;41.23;27.30;;;;;;;6.87;56.01;101851.59;5033127;28;20754;-76
2022/12/27 02:07:13;;;;;;;45.88;29.55;;;;;;;6.85;55.99;101848.25;5045807;28;20396;-76
2022/12/27 02:09:46;;;;;;;43.67;28.80;;;;;;;6.83;56.02;101849.34;5036267;28;20402;-77
2022/12/27 02:12:12;;;;;;;49.78;32.85;;;;;;;6.92;55.86;101850.44;5028644;28;20475;-76
2022/12/27 02:14:39;;;;;;;50.38;33.15;;;;;;;6.94;55.83;101848.50;5032358;28;20477;-76
2022/12/27 02:17:12;;;;;;;46.97;31.92;;;;;;;6.91;56.14;101851.38;5034054;28;20457;-77
2022/12/27 02:19:40;;;;;;;51.70;33.42;;;;;;;6.91;56.09;101839.03;5032863;28;20404;-77
2022/12/27 02:22:30;;;;;;;56.97;35.40;;;;;;;6.94;56.24;101830.88;5034730;28;21038;-77
2022/12/27 02:25:08;;;;;;;51.53;34.70;;;;;;;6.93;56.25;101823.09;5034859;28;20385;-77
2022/12/27 02:27:54;;;;;;;54.10;35.00;;;;;;;7.00;56.08;101837.47;5035054;28;20407;-77
2022/12/27 02:30:19;;;;;;;50.63;35.58;;;;;;;7.04;55.99;101845.03;5037928;28;20895;-77
2022/12/27 02:33:07;;;;;;;55.00;35.30;;;;;;;7.09;56.05;101834.13;5034434;28;20413;-77
2022/12/27 02:35:39;;;;;;;54.28;35.33;;;;;;;7.08;55.98;101809.56;5039181;28;20847;-77
2022/12/27 02:38:19;;;;;;;50.37;35.47;;;;;;;7.00;56.33;101814.56;5038772;28;20445;-77
2022/12/27 02:59:08;;;;;;;43.80;30.15;;;;;;;7.05;56.24;101798.41;5041195;28;20898;-77
2022/12/27 03:05:25;;;;;;;41.03;28.58;;;;;;;7.04;56.36;101807.28;5034443;28;20473;-77
2022/12/27 03:08:01;;;;;;;43.08;29.15;;;;;;;6.99;55.98;101810.28;5029150;28;20398;-77
2022/12/27 03:16:28;;;;;;;39.30;27.47;;;;;;;7.06;55.85;101811.47;5036055;28;20875;-76
2022/12/27 03:19:02;;;;;;;43.08;31.88;;;;;;;7.07;55.66;101813.13;5036241;28;20418;-77
2022/12/27 03:27:08;;;;;;;40.47;28.80;;;;;;;6.95;56.51;101808.00;5034514;28;20514;-77
2022/12/27 03:35:11;;;;;;;52.25;44.08;;;;;;;7.06;55.95;101795.66;5039665;28;20501;-77
2022/12/27 03:43:41;;;;;;;47.72;31.15;;;;;;;6.77;56.56;101807.63;5023848;28;20726;-77
2022/12/27 03:46:32;;;;;;;45.00;31.50;;;;;;;6.73;56.98;101799.09;5039385;28;20894;-77
2022/12/27 03:49:20;;;;;;;50.72;35.40;;;;;;;6.78;56.99;101802.22;5038010;28;20891;-77
2022/12/27 03:51:51;;;;;;;52.60;35.42;;;;;;;6.73;57.15;101807.00;5037969;28;20706;-77
2022/12/27 03:54:33;;;;;;;51.65;35.20;;;;;;;6.57;57.56;101814.41;5033293;28;20387;-77
2022/12/27 03:57:04;;;;;;;48.10;34.35;;;;;;;6.35;58.53;101815.22;5033193;28;20433;-77
2022/12/27 03:59:30;;;;;;;42.25;30.30;;;;;;;6.32;58.63;101811.03;5035665;28;20409;-77
2022/12/27 04:01:56;;;;;;;42.95;30.08;;;;;;;6.30;58.51;101812.91;5036474;28;20396;-77
2022/12/27 04:04:22;;;;;;;35.85;26.30;;;;;;;6.20;58.43;101811.94;5034499;28;20382;-77
2022/12/27 04:06:48;;;;;;;33.60;24.35;;;;;;;6.14;58.82;101805.34;5038330;28;20394;-77
2022/12/27 04:36:34;;;;;;;36.72;26.15;;;;;;;6.64;57.04;101778.75;5036038;28;20893;-76
2022/12/27 04:38:59;;;;;;;37.27;27.00;;;;;;;6.57;57.42;101772.25;5050315;28;20391;-76
2022/12/27 04:55:27;;;;;;;44.33;29.73;;;;;;;6.82;56.83;101784.38;5031398;28;20463;-76
2022/12/27 04:57:53;;;;;;;59.92;39.95;;;;;;;6.76;56.90;101772.53;5035766;28;20398;-77
2022/12/27 05:03:10;;;;;;;50.35;32.22;;;;;;;6.83;56.67;101765.00;5035894;28;20474;-77
2022/12/27 05:05:37;;;;;;;47.42;33.60;;;;;;;6.85;57.03;101766.53;5033325;28;20454;-76
2022/12/27 05:16:16;;;;;;;51.60;33.75;;;;;;;6.36;57.95;101777.41;5033375;28;20954;-77
2022/12/27 05:18:42;;;;;;;48.63;33.73;;;;;;;6.36;57.98;101780.03;5033113;28;20469;-76
2022/12/27 05:21:07;;;;;;;58.42;51.28;;;;;;;6.60;57.55;101775.50;5035268;28;20388;-76
2022/12/27 05:26:23;;;;;;;72.22;58.78;;;;;;;6.74;56.85;101763.06;5031785;28;20895;-75
2022/12/27 05:28:51;;;;;;;58.40;38.40;;;;;;;6.74;56.55;101761.28;5034933;28;20446;-77
2022/12/27 05:31:17;;;;;;;46.55;33.28;;;;;;;6.68;56.68;101762.59;5050493;28;20459;-76
2022/12/27 05:33:42;;;;;;;47.08;34.22;;;;;;;6.60;57.00;101767.59;5032798;28;20404;-77
2022/12/27 05:36:08;;;;;;;47.08;33.70;;;;;;;6.63;56.82;101763.91;5031299;28;20396;-77
2022/12/27 05:38:34;;;;;;;48.40;35.80;;;;;;;6.64;56.82;101763.75;5047549;28;20397;-77
2022/12/27 05:41:00;;;;;;;49.43;33.87;;;;;;;6.65;56.79;101760.19;5035803;28;20851;-77
2022/12/27 05:43:27;;;;;;;47.40;33.53;;;;;;;6.64;56.73;101768.19;5034061;28;20394;-78
2022/12/27 05:45:53;;;;;;;45.83;33.00;;;;;;;6.57;57.17;101767.00;5035623;28;20393;-77
2022/12/27 05:48:20;;;;;;;45.37;32.33;;;;;;;6.32;57.69;101772.34;5037025;28;20394;-77
2022/12/27 05:50:46;;;;;;;47.80;33.47;;;;;;;6.07;58.48;101785.69;5032724;28;20936;-78
2022/12/27 05:53:12;;;;;;;49.03;34.87;;;;;;;6.00;59.11;101787.09;5035964;28;20469;-76
2022/12/27 05:55:38;;;;;;;47.42;34.03;;;;;;;6.03;59.26;101781.56;5038360;28;20398;-76
2022/12/27 05:58:03;;;;;;;49.50;35.35;;;;;;;6.08;58.58;101790.81;5036604;28;20398;-76
2022/12/27 06:00:29;;;;;;;50.83;36.20;;;;;;;6.11;59.44;101793.22;5038763;28;20389;-76
2022/12/27 06:02:54;;;;;;;60.73;41.33;;;;;;;6.14;59.33;101794.81;5035638;28;20390;-78
2022/12/27 06:05:20;;;;;;;57.73;39.43;;;;;;;6.05;59.11;101790.19;5037213;28;20385;-77
2022/12/27 06:07:45;;;;;;;54.92;38.42;;;;;;;5.97;59.89;101793.41;5040138;28;20439;-76
2022/12/27 06:10:11;;;;;;;56.47;39.33;;;;;;;5.91;60.51;101791.22;5035142;28;20460;-77
2022/12/27 06:12:37;;;;;;;62.37;41.00;;;;;;;5.81;60.73;101796.28;5036373;28;20904;-77
2022/12/27 06:15:04;;;;;;;55.53;39.30;;;;;;;5.79;60.76;101800.00;5036169;28;20444;-77
2022/12/27 06:17:30;;;;;;;52.60;36.83;;;;;;;5.83;61.02;101801.44;5043287;28;20743;-77
2022/12/27 06:19:55;;;;;;;50.93;35.40;;;;;;;5.91;60.61;101791.22;5034955;28;20386;-77
2022/12/27 06:22:21;;;;;;;50.72;35.42;;;;;;;5.97;60.97;101784.69;5036524;28;20558;-78
2022/12/27 06:24:46;;;;;;;47.90;33.63;;;;;;;6.04;60.24;101788.53;5042837;28;20396;-77
2022/12/27 06:27:12;;;;;;;49.93;33.70;;;;;;;6.10;60.25;101788.94;5040667;28;20414;-78
2022/12/27 06:29:37;;;;;;;48.17;34.60;;;;;;;6.18;59.87;101784.88;5037732;28;20867;-77
2022/12/27 06:32:03;;;;;;;49.97;36.00;;;;;;;6.40;59.50;101794.63;5043370;28;20432;-78
2022/12/27 06:34:28;;;;;;;48.33;34.28;;;;;;;6.48;59.49;101779.94;5038424;28;20444;-78
2022/12/27 06:36:54;;;;;;;50.07;34.67;;;;;;;6.57;58.83;101774.91;5036282;28;20803;-78
2022/12/27 06:39:19;;;;;;;55.07;36.30;;;;;;;6.61;58.77;101781.59;5039068;28;20865;-77
2022/12/27 06:41:45;;;;;;;51.20;35.70;;;;;;;6.66;58.67;101784.72;5039323;28;20766;-77
2022/12/27 06:44:11;;;;;;;51.03;36.38;;;;;;;6.69;58.76;101784.50;5038975;28;20390;-77
2022/12/27 06:46:36;;;;;;;53.10;37.30;;;;;;;6.64;59.15;101774.31;5048606;28;20387;-78
2022/12/27 06:49:03;;;;;;;53.53;36.33;;;;;;;6.69;59.18;101780.06;5053931;28;20901;-78
2022/12/27 06:51:28;;;;;;;51.40;37.28;;;;;;;6.72;59.44;101786.03;5052552;28;20409;-78
2022/12/27 06:53:54;;;;;;;54.50;37.60;;;;;;;6.78;58.98;101785.59;5052402;28;20396;-76
2022/12/27 06:56:21;;;;;;;51.22;37.38;;;;;;;6.86;58.96;101793.72;5052238;28;20407;-78
2022/12/27 06:58:48;;;;;;;52.85;36.97;;;;;;;6.85;58.47;101792.06;5054287;28;20453;-77
2022/12/27 07:01:20;;;;;;;62.70;42.60;;;;;;;6.76;58.61;101796.25;5051259;28;20389;-77
2022/12/27 07:03:51;;;;;;;101.43;57.83;;;;;;;6.76;59.01;101800.69;5050838;28;20522;-77
2022/12/27 07:06:17;;;;;;;110.10;59.92;;;;;;;6.91;58.89;101801.28;5050744;28;20392;-77
2022/12/27 07:08:42;;;;;;;121.35;73.13;;;;;;;7.01;58.33;101807.53;5050277;28;20416;-80
2022/12/27 07:11:10;;;;;;;90.05;55.85;;;;;;;7.02;58.35;101811.81;5051380;28;20423;-76
2022/12/27 07:13:38;;;;;;;83.40;51.70;;;;;;;7.10;58.30;101814.72;5050964;28;20388;-76
2022/12/27 07:16:08;;;;;;;84.95;52.55;;;;;;;7.25;58.10;101821.41;5051251;28;20404;-76
2022/12/27 07:18:34;;;;;;;90.65;53.20;;;;;;;7.37;58.11;101818.78;5051018;28;20446;-76
2022/12/27 07:21:08;;;;;;;82.35;52.42;;;;;;;7.41;57.80;101802.56;5052349;28;20401;-78
2022/12/27 07:23:34;;;;;;;94.47;53.55;;;;;;;7.56;57.81;101812.84;5052263;28;20403;-76
2022/12/27 07:26:08;;;;;;;83.50;52.03;;;;;;;7.64;57.33;101808.66;5052441;28;20450;-78
2022/12/27 07:28:34;;;;;;;67.43;44.47;;;;;;;7.77;57.12;101808.50;5051919;28;20480;-77
2022/12/27 07:31:07;;;;;;;74.15;48.75;;;;;;;7.90;57.02;101818.06;5063441;28;20489;-78
2022/12/27 07:33:34;;;;;;;75.88;47.10;;;;;;;7.99;57.25;101817.28;5049399;28;20621;-78
2022/12/27 07:36:01;;;;;;;76.05;47.03;;;;;;;7.94;57.40;101824.75;5051336;28;20396;-77
2022/12/27 07:38:26;;;;;;;86.68;52.25;;;;;;;7.90;57.47;101815.41;5051646;28;20869;-78
2022/12/27 07:40:52;;;;;;;79.03;56.53;;;;;;;7.80;58.05;101805.59;5051620;28;20396;-77
2022/12/27 07:43:19;;;;;;;81.57;55.47;;;;;;;7.95;58.02;101814.06;5050741;28;20439;-78
2022/12/27 07:45:44;;;;;;;89.07;60.63;;;;;;;8.24;58.19;101808.19;5049836;28;20404;-77
2022/12/27 07:48:10;;;;;;;76.25;51.92;;;;;;;8.56;57.81;101802.03;5054483;28;20527;-78
2022/12/27 07:50:35;;;;;;;59.20;38.27;;;;;;;8.73;58.01;101803.25;5051726;28;20849;-78
2022/12/27 07:53:01;;;;;;;60.63;37.27;;;;;;;8.85;57.83;101819.88;5064122;28;20397;-78
2022/12/27 07:55:27;;;;;;;50.08;32.03;;;;;;;9.09;58.42;101828.34;5051626;28;20422;-77
2022/12/27 07:57:52;;;;;;;28.33;19.63;;;;;;;9.44;58.36;101826.25;5051384;28;20420;-78
2022/12/27 08:00:18;;;;;;;28.27;18.87;;;;;;;9.87;57.30;101825.06;5051472;28;20413;-77
2022/12/27 08:02:45;;;;;;;49.03;26.97;;;;;;;10.17;56.95;101821.44;5053023;28;20391;-78
2022/12/27 08:05:11;;;;;;;145.27;62.97;;;;;;;10.40;56.90;101823.81;5051222;28;20420;-77
2022/12/27 08:07:38;;;;;;;234.85;88.93;;;;;;;10.67;56.38;101829.22;5050173;28;20427;-77
2022/12/27 08:10:03;;;;;;;32.35;21.13;;;;;;;10.93;56.24;101825.94;5055081;28;20495;-77
2022/12/27 08:12:29;;;;;;;37.78;23.40;;;;;;;11.08;56.07;101815.69;5050714;28;20997;-79
2022/12/27 08:14:54;;;;;;;41.10;26.30;;;;;;;11.20;55.57;101803.06;5056150;28;20413;-77
2022/12/27 08:17:23;;;;;;;45.63;30.80;;;;;;;11.28;55.93;101811.13;5051337;28;20935;-78
2022/12/27 08:19:50;;;;;;;21.17;13.87;;;;;;;11.31;56.32;101802.88;5052108;28;20530;-78
2022/12/27 08:22:16;;;;;;;15.65;10.50;;;;;;;11.53;56.22;101804.28;5052296;28;20392;-78
2022/12/27 08:24:42;;;;;;;26.05;16.80;;;;;;;11.64;56.31;101787.31;5069834;28;20796;-78
2022/12/27 08:27:09;;;;;;;13.20;8.13;;;;;;;11.83;56.02;101791.66;5078313;28;20388;-79
2022/12/27 08:29:34;;;;;;;15.05;8.65;;;;;;;12.05;55.79;101803.66;5052488;28;20388;-77
2022/12/27 08:32:00;;;;;;;12.05;9.38;;;;;;;12.12;55.64;101798.53;5047806;28;20845;-77
2022/12/27 08:34:25;;;;;;;15.00;8.37;;;;;;;12.33;55.54;101799.03;5050965;28;20394;-78
2022/12/27 08:36:52;;;;;;;13.53;9.07;;;;;;;12.40;55.49;101810.72;5052172;28;20884;-80
2022/12/27 08:39:18;;;;;;;14.70;10.18;;;;;;;12.53;55.18;101815.66;5053364;28;20864;-77
2022/12/27 08:41:44;;;;;;;34.35;21.48;;;;;;;12.73;54.96;101824.28;5051827;28;20770;-77
2022/12/27 08:44:10;;;;;;;27.23;18.25;;;;;;;12.87;54.72;101833.50;5055921;28;20480;-78
2022/12/27 08:46:36;;;;;;;40.28;27.17;;;;;;;13.05;54.15;101820.09;5053573;28;20391;-78
2022/12/27 08:49:02;;;;;;;16.30;10.57;;;;;;;13.25;53.91;101835.84;5048939;28;20742;-77
2022/12/27 08:51:27;;;;;;;20.00;14.93;;;;;;;13.39;53.89;101836.09;5051109;28;20440;-79
2022/12/27 08:53:55;;;;;;;12.70;8.90;;;;;;;13.64;53.73;101838.84;5056284;28;20417;-77
2022/12/27 08:56:20;;;;;;;11.13;7.27;;;;;;;13.89;52.98;101839.72;5050897;28;20738;-77
2022/12/27 08:58:49;;;;;;;15.00;9.30;;;;;;;14.13;52.67;101843.41;5033212;28;20875;-78
2022/12/27 09:01:14;;;;;;;10.38;6.40;;;;;;;14.36;52.55;101851.59;5033992;28;20377;-78
2022/12/27 09:03:40;;;;;;;10.80;6.13;;;;;;;14.59;51.37;101840.28;5035494;28;20398;-80
2022/12/27 09:06:20;;;;;;;9.00;6.00;;;;;;;14.81;50.84;101852.09;5043532;28;20386;-76
2022/12/27 09:08:48;;;;;;;12.77;6.13;;;;;;;14.85;50.36;101851.56;5045504;28;20404;-81
2022/12/27 09:11:21;;;;;;;8.43;6.00;;;;;;;15.03;50.33;101861.22;5039938;28;20889;-78
2022/12/27 09:13:46;;;;;;;9.50;6.85;;;;;;;15.20;50.15;101867.34;5047417;28;20488;-77
2022/12/27 09:16:15;;;;;;;7.53;4.70;;;;;;;15.25;49.71;101864.97;5049413;28;20550;-80
2022/12/27 09:18:42;;;;;;;26.88;16.17;;;;;;;15.35;49.26;101875.47;5049031;28;21349;-78
2022/12/27 09:21:10;;;;;;;14.63;8.68;;;;;;;15.22;49.41;101878.69;5046348;28;20385;-78
2022/12/27 09:23:36;;;;;;;6.57;5.15;;;;;;;15.33;49.68;101889.00;5044884;28;20424;-77
2022/12/27 09:26:07;;;;;;;4.95;3.83;;;;;;;15.15;49.58;101894.56;5043001;28;20476;-77
2022/12/27 09:28:33;;;;;;;7.43;4.10;;;;;;;15.37;49.36;101913.53;5044651;28;20407;-77
2022/12/27 09:30:58;;;;;;;3.90;2.42;;;;;;;14.96;49.14;101909.09;5044847;28;20890;-77
2022/12/27 09:33:24;;;;;;;4.60;3.05;;;;;;;14.93;48.95;101901.47;5046181;28;20385;-79
2022/12/27 09:35:49;;;;;;;4.63;2.93;;;;;;;14.79;49.42;101910.16;5076110;28;20880;-79
2022/12/27 09:38:15;;;;;;;4.55;3.15;;;;;;;14.91;49.24;101908.81;5051009;28;20385;-77
2022/12/27 09:40:54;;;;;;;5.07;3.10;;;;;;;14.93;48.73;101913.94;5050819;28;20460;-77
2022/12/27 09:43:23;;;;;;;6.53;4.30;;;;;;;15.11;48.19;101922.63;5048917;28;20760;-77
2022/12/27 09:45:52;;;;;;;5.13;3.50;;;;;;;14.84;48.18;101919.31;5053120;28;20378;-77
2022/12/27 09:48:31;;;;;;;6.13;4.20;;;;;;;15.11;47.83;101909.28;5050490;28;20447;-79
2022/12/27 09:51:07;;;;;;;4.45;2.75;;;;;;;14.93;47.70;101916.63;5048653;28;20373;-77
2022/12/27 09:53:43;;;;;;;11.23;5.80;;;;;;;15.17;47.57;101908.56;5047385;28;20384;-77
2022/12/27 09:56:11;;;;;;;4.68;3.15;;;;;;;15.18;47.39;101902.25;5051024;28;20723;-77
2022/12/27 09:58:44;;;;;;;10.70;6.20;;;;;;;15.35;47.19;101907.53;5047779;28;20445;-79
2022/12/27 10:01:32;;;;;;;13.10;7.10;;;;;;;15.56;47.22;101902.44;5043032;28;20436;-78
2022/12/27 10:03:58;;;;;;;8.18;4.72;;;;;;;15.49;47.33;101898.78;5047624;28;20683;-77
2022/12/27 10:06:38;;;;;;;5.32;3.20;;;;;;;15.18;47.01;101901.38;5050608;28;20377;-77
2022/12/27 10:09:36;;;;;;;9.40;5.25;;;;;;;15.24;47.12;101900.72;5071113;28;20412;-78
2022/12/27 10:12:46;;;;;;;5.20;2.67;;;;;;;15.19;47.32;101895.06;5058271;28;20889;-77
2022/12/27 10:15:32;;;;;;;9.20;5.32;;;;;;;15.41;47.24;101897.00;5021764;28;20423;-77
2022/12/27 10:18:06;;;;;;;17.30;11.00;;;;;;;15.41;46.85;101883.63;5039475;28;20386;-77
2022/12/27 10:20:47;;;;;;;31.05;20.95;;;;;;;15.45;47.21;101900.16;5044067;28;20383;-77
2022/12/27 10:23:19;;;;;;;14.40;9.88;;;;;;;15.43;46.77;101891.44;5040350;28;20409;-77
2022/12/27 10:25:46;;;;;;;10.18;6.68;;;;;;;15.49;47.00;101894.28;5047756;28;20390;-77
2022/12/27 10:28:33;;;;;;;14.02;8.85;;;;;;;15.62;46.47;101895.56;5041435;28;20460;-77
2022/12/27 10:31:02;;;;;;;6.87;4.80;;;;;;;15.48;46.45;101902.47;5050111;28;20861;-79
2022/12/27 10:33:30;;;;;;;7.47;5.70;;;;;;;15.62;46.38;101893.72;5050813;28;20881;-77
2022/12/27 10:35:56;;;;;;;13.35;9.52;;;;;;;15.72;46.58;101898.00;5050078;28;20482;-76
2022/12/27 10:38:23;;;;;;;8.18;5.93;;;;;;;15.78;46.33;101892.00;5046775;28;20443;-77
2022/12/27 10:41:26;;;;;;;8.73;5.45;;;;;;;15.67;46.30;101899.38;5048521;28;20473;-80
2022/12/27 10:43:53;;;;;;;7.20;5.43;;;;;;;15.78;45.99;101914.22;5052106;28;20357;-78
2022/12/27 10:46:23;;;;;;;9.10;6.53;;;;;;;15.79;46.05;101907.88;5048050;28;20424;-78
2022/12/27 10:49:05;;;;;;;8.43;6.07;;;;;;;15.86;46.09;101905.31;5045511;28;20381;-78
2022/12/27 10:51:39;;;;;;;10.05;7.50;;;;;;;15.94;46.01;101909.81;5049106;28;20898;-78
2022/12/27 10:54:18;;;;;;;5.32;3.90;;;;;;;15.80;46.06;101887.31;5051289;28;20386;-80
2022/12/27 10:56:44;;;;;;;6.72;5.07;;;;;;;15.79;45.67;101891.84;5045898;28;20388;-80
2022/12/27 10:59:14;;;;;;;7.15;4.32;;;;;;;15.89;45.84;101902.28;5044952;28;20384;-79
2022/12/27 11:01:40;;;;;;;9.10;6.00;;;;;;;15.91;45.86;101899.44;5034415;28;20363;-78
2022/12/27 11:04:11;;;;;;;8.73;5.20;;;;;;;15.84;45.29;101910.00;5034198;28;20401;-77
2022/12/27 11:06:38;;;;;;;9.35;5.82;;;;;;;15.93;45.67;101903.59;5045235;28;20439;-78
2022/12/27 11:09:29;;;;;;;14.93;7.93;;;;;;;15.87;45.34;101920.38;5051648;28;20397;-78
2022/12/27 11:12:13;;;;;;;17.90;10.40;;;;;;;15.82;45.69;101914.69;5044553;28;20483;-78
2022/12/27 11:14:52;;;;;;;11.43;5.10;;;;;;;15.72;45.42;101919.38;5035752;28;20417;-77
2022/12/27 11:17:22;;;;;;;7.97;4.80;;;;;;;15.82;45.75;101922.72;5040469;28;20388;-78
2022/12/27 11:19:48;;;;;;;11.03;6.70;;;;;;;15.79;45.50;101913.22;5032638;28;20410;-78
2022/12/27 11:22:13;;;;;;;15.80;10.63;;;;;;;15.81;45.61;101910.34;5036934;28;20486;-78
2022/12/27 11:24:46;;;;;;;5.88;4.13;;;;;;;15.67;45.64;101915.41;5044949;28;20377;-78
2022/12/27 11:27:24;;;;;;;6.60;4.40;;;;;;;15.66;45.83;101908.41;5039772;28;20433;-79
2022/12/27 11:29:52;;;;;;;5.90;5.18;;;;;;;15.74;45.70;101910.25;5040844;28;20399;-77
2022/12/27 11:32:22;;;;;;;7.20;4.70;;;;;;;15.72;45.43;101916.72;5035893;28;20426;-78
2022/12/27 11:34:51;;;;;;;7.03;4.13;;;;;;;15.75;45.48;101913.72;5042803;28;20471;-78
2022/12/27 11:37:19;;;;;;;7.82;4.15;;;;;;;15.73;45.41;101907.69;5041116;28;21564;-77
2022/12/27 11:39:51;;;;;;;4.82;3.13;;;;;;;15.63;45.65;101907.94;5051521;28;20388;-77
2022/12/27 11:42:37;;;;;;;5.55;3.33;;;;;;;15.52;45.82;101909.16;5049734;28;20397;-77
2022/12/27 11:45:31;;;;;;;6.20;3.80;;;;;;;15.54;45.67;101904.44;5047735;28;20389;-79
2022/12/27 11:48:02;;;;;;;7.07;5.25;;;;;;;15.48;45.75;101902.47;5054364;28;20393;-77
2022/12/27 11:50:47;;;;;;;5.85;4.30;;;;;;;15.51;45.90;101891.44;5052112;28;20395;-78
2022/12/27 11:53:25;;;;;;;7.65;5.30;;;;;;;15.63;45.62;101897.25;5060814;28;20404;-77
2022/12/27 11:56:27;;;;;;;9.02;5.13;;;;;;;15.58;45.49;101894.25;5053595;28;20376;-79
2022/12/27 11:59:11;;;;;;;10.05;4.97;;;;;;;15.60;45.33;101903.75;5050245;28;20403;-78
2022/12/27 12:01:55;;;;;;;7.45;5.30;;;;;;;15.67;45.24;101899.38;5054282;28;20392;-79
2022/12/27 12:04:53;;;;;;;9.38;5.60;;;;;;;15.58;45.44;101892.41;5050889;28;20408;-78
2022/12/27 12:07:53;;;;;;;8.25;5.53;;;;;;;15.59;45.03;101896.75;5051672;28;20392;-77
2022/12/27 12:10:18;;;;;;;17.95;10.25;;;;;;;15.56;45.59;101886.41;5060448;28;20431;-77
2022/12/27 12:12:59;;;;;;;13.53;7.17;;;;;;;15.73;45.18;101889.81;5068390;28;20498;-77
2022/12/27 12:15:45;;;;;;;14.45;8.52;;;;;;;15.52;45.31;101890.44;5038909;28;20421;-78
2022/12/27 12:18:47;;;;;;;7.63;5.37;;;;;;;15.53;45.34;101883.25;5052087;28;20483;-78
2022/12/27 12:21:25;;;;;;;8.97;4.97;;;;;;;15.54;45.10;101900.94;5049822;28;20745;-77
2022/12/27 12:24:19;;;;;;;7.43;4.80;;;;;;;15.46;45.21;101899.97;5050135;28;20830;-77
2022/12/27 12:27:15;;;;;;;8.23;5.53;;;;;;;15.51;45.19;101910.13;5045214;28;20452;-78
2022/12/27 12:30:12;;;;;;;8.65;6.15;;;;;;;15.71;45.02;101904.38;5046418;28;21090;-78
2022/12/27 12:32:58;;;;;;;7.97;6.20;;;;;;;15.81;44.60;101903.19;5050837;28;20496;-77
2022/12/27 12:35:59;;;;;;;6.65;4.95;;;;;;;15.86;44.61;101905.31;5049779;28;20391;-76
2022/12/27 12:38:55;;;;;;;10.07;5.23;;;;;;;15.75;44.77;101908.38;5049136;28;20938;-77
2022/12/27 12:42:26;;;;;;;9.52;4.38;;;;;;;15.83;44.50;101921.72;5051083;28;20413;-78
2022/12/27 12:45:28;;;;;;;4.10;2.67;;;;;;;15.79;44.28;101926.59;4964947;28;20435;-78
2022/12/27 12:48:08;;;;;;;6.90;4.90;;;;;;;15.98;44.00;101922.63;5050322;28;20392;-78
2022/12/27 12:50:59;;;;;;;10.40;6.17;;;;;;;16.02;44.16;101928.47;5043581;28;20543;-77
2022/12/27 12:53:52;;;;;;;6.03;3.63;;;;;;;15.91;43.80;101926.19;5051245;28;20401;-78
2022/12/27 12:56:40;;;;;;;9.68;4.93;;;;;;;15.94;43.60;101926.66;5058110;28;21023;-79
2022/12/27 12:59:20;;;;;;;7.65;4.47;;;;;;;15.99;43.71;101926.13;5051530;28;20400;-78
2022/12/27 13:02:04;;;;;;;11.23;7.30;;;;;;;16.03;43.80;101928.28;5047767;28;20459;-78
2022/12/27 13:04:44;;;;;;;15.15;8.40;;;;;;;16.05;43.56;101926.25;5041428;28;20387;-78
2022/12/27 13:07:36;;;;;;;7.63;4.10;;;;;;;15.86;43.47;101924.88;5035270;28;20717;-78
2022/12/27 13:10:11;;;;;;;6.70;4.90;;;;;;;15.95;43.64;101924.81;5038837;28;20864;-78
2022/12/27 13:12:58;;;;;;;7.03;4.05;;;;;;;15.79;43.75;101920.38;5049476;28;20416;-76
2022/12/27 13:15:32;;;;;;;8.77;5.53;;;;;;;15.77;43.89;101919.75;5049208;28;20420;-77
2022/12/27 13:17:58;;;;;;;4.93;3.00;;;;;;;15.68;43.67;101918.91;5049861;28;20424;-77
2022/12/27 13:21:02;;;;;;;6.20;4.40;;;;;;;15.64;43.76;101907.72;5050593;28;20407;-78
2022/12/27 13:23:40;;;;;;;7.05;3.72;;;;;;;15.80;43.64;101908.69;5038381;28;20396;-78